Celina — V2GV5 — position and weather

sailwx.info

Track history (hours):
 
Tides and Currents Weather Stations Pressure Air Temp Water Temp Dewpoint Dewpoint Depression Visibility Wind Speed Wind Dir Waves Ship Positions

Celina

Last reported at 2018-Apr-22 11:49 UTC. Time now 2018-Apr-23 14:56 UTC.
Position N 38°20' W 010°00'.

Length 105 m; draft 7.2 m.

Type: Cargo ship. MMSI: 304099000.

Date/timePositionNaut miles runAvg speedWind from/ knotsBaromVisibWave heightAir tempDewpointWater temp
2018-Apr-22 11:49N 38°20' W 010°00'3 9.5
2018-Apr-22 11:29N 38°23' W 010°01'5 9.5
2018-Apr-22 11:00N 38°28' W 010°02'5 9.6
2018-Apr-22 10:30N 38°33' W 010°04'5 9.5
2018-Apr-22 09:57N 38°38' W 010°06'6 9.8
2018-Apr-22 09:20N 38°44' W 010°07'310.2
2018-Apr-22 09:00N 38°47' W 010°07'610.2
2018-Apr-22 08:26N 38°53' W 010°07'410.1
2018-Apr-22 08:00N 38°57' W 010°08'5 9.8
2018-Apr-22 07:30N 39°02' W 010°09'5 9.9
2018-Apr-22 07:00N 39°07' W 010°10'5 9.7
2018-Apr-22 06:30N 39°12' W 010°11'510.2
2018-Apr-22 06:00N 39°17' W 010°11'  
2018-Apr-19 11:17N 49°19' W 004°38'23 9.1
2018-Apr-19 08:48N 49°30' W 004°08'10 7.3
2018-Apr-19 07:23N 49°35' W 003°54'3 7.1
2018-Apr-19 06:55N 49°37' W 003°50'3 7.1
2018-Apr-19 06:28N 49°39' W 003°45'7 7.4
2018-Apr-19 05:35N 49°42' W 003°37'1 7.7
2018-Apr-19 05:30N 49°42' W 003°36'5 8.2
2018-Apr-19 04:53N 49°45' W 003°29'3 8.9
2018-Apr-19 04:30N 49°47' W 003°24'5 9.7
2018-Apr-19 04:00N 49°49' W 003°18'510.5
2018-Apr-19 03:30N 49°52' W 003°11'611.0
2018-Apr-19 03:00N 49°55' W 003°04'611.2
2018-Apr-19 02:30N 49°57' W 002°56'611.0
2018-Apr-19 02:00N 49°59' W 002°48'510.5
2018-Apr-19 01:30N 50°01' W 002°40'5 9.8
2018-Apr-19 01:00N 50°02' W 002°33'4 9.0
2018-Apr-19 00:30N 50°03' W 002°26'14 6.9
2018-Apr-18 22:30N 50°07' W 002°05'3 5.1
2018-Apr-18 22:00N 50°08' W 002°02'2 4.7
2018-Apr-18 21:30N 50°09' W 001°58'2 4.7
2018-Apr-18 20:59N 50°09' W 001°55'2 4.9
2018-Apr-18 20:30N 50°10' W 001°51'3 5.6
2018-Apr-18 20:00N 50°11' W 001°47'3 6.5
2018-Apr-18 19:30N 50°12' W 001°42'4 7.7
2018-Apr-18 19:01N 50°13' W 001°36'4 8.8
2018-Apr-18 18:30N 50°14' W 001°30'510.1
2018-Apr-18 18:00N 50°16' W 001°22'611.2
2018-Apr-18 17:28N 50°18' W 001°13'612.1
2018-Apr-18 17:00N 50°19' W 001°05'712.8
2018-Apr-18 16:28N 50°21' W 000°55'612.7
2018-Apr-18 16:00N 50°23' W 000°46'612.5
2018-Apr-18 15:30N 50°25' W 000°36'612.0
2018-Apr-18 15:00N 50°27' W 000°27'611.3
2018-Apr-18 14:30N 50°28' W 000°19'510.7
2018-Apr-18 14:00N 50°30' W 000°11'510.1
2018-Apr-18 13:30N 50°31' W 000°03'4 8.5
2018-Apr-18 13:00N 50°33' E 000°03'4 8.8
2018-Apr-18 12:30N 50°34' E 000°10'4 8.6
2018-Apr-18 12:00N 50°35' E 000°16'4 8.0
2018-Apr-18 11:30N 50°36' E 000°22'4 7.6
2018-Apr-18 11:00N 50°37' E 000°28'4 7.5
2018-Apr-18 10:30N 50°39' E 000°33'4 7.7
2018-Apr-18 10:00N 50°41' E 000°39'4 8.4
2018-Apr-18 09:30N 50°43' E 000°44'5 9.2
2018-Apr-18 09:00N 50°46' E 000°50'510.1
2018-Apr-18 08:29N 50°49' E 000°57'911.3
2018-Apr-18 07:42N 50°54' E 001°08'311.6
2018-Apr-18 07:27N 50°56' E 001°12'611.7
2018-Apr-18 06:57N 50°60' E 001°19'511.6
2018-Apr-18 06:30N 51°03' E 001°25'510.8
2018-Apr-18 06:00N 51°07' E 001°32'5 9.9
2018-Apr-18 05:30N 51°10' E 001°37'5 9.3
2018-Apr-18 05:00N 51°13' E 001°43'4 8.9
2018-Apr-18 04:30N 51°16' E 001°47'4 8.1
2018-Apr-18 04:00N 51°20' E 001°51'4 7.9
2018-Apr-18 03:30N 51°22' E 001°56'4 7.5
2018-Apr-18 03:00N 51°25' E 002°00'5 9.3
2018-Apr-18 02:30N 51°23' E 002°07'5 9.2
2018-Apr-18 02:00N 51°21' E 002°14'4 8.0
2018-Apr-18 01:30N 51°21' E 002°21'4 8.1
2018-Apr-18 01:00N 51°22' E 002°27'5 8.5
2018-Apr-18 00:27N 51°23' E 002°34'4 9.4
2018-Apr-18 00:00N 51°22' E 002°41'5 8.9
2018-Apr-17 23:29N 51°22' E 002°48'510.6
2018-Apr-17 22:59N 51°23' E 002°57'510.4
2018-Apr-17 22:30N 51°24' E 003°04'510.2
2018-Apr-17 22:00N 51°25' E 003°13'510.5
2018-Apr-17 21:30N 51°25' E 003°21'510.9
2018-Apr-17 21:00N 51°25' E 003°30'510.7
2018-Apr-17 20:30N 51°26' E 003°38'511.0
2018-Apr-17 20:00N 51°22' E 003°44'4 7.9
2018-Apr-17 19:30N 51°20' E 003°49'0 0.2
2018-Apr-17 19:00N 51°20' E 003°49'0 1.0
2018-Apr-17 18:31N 51°19' E 003°49'3 6.0
2018-Apr-17 18:01N 51°16' E 003°50'3 6.2
2018-Apr-17 17:30N 51°13' E 003°48'3 5.7
2018-Apr-17 17:00N 51°11' E 003°48'3 6.8
2018-Apr-17 16:30N 51°08' E 003°46'1 2.7
2018-Apr-17 15:59N 51°06' E 003°45'0 0.0
2018-Apr-17 15:29N 51°06' E 003°45'0 0.0
2018-Apr-17 14:58N 51°06' E 003°45'0 0.0
2018-Apr-17 14:22N 51°06' E 003°45'0 0.0
2018-Apr-17 13:58N 51°06' E 003°45'0 0.0
2018-Apr-17 13:25N 51°06' E 003°45'0 0.0
2018-Apr-17 12:59N 51°06' E 003°45'0 0.0
2018-Apr-17 12:28N 51°06' E 003°45'0 0.0
2018-Apr-17 11:58N 51°06' E 003°45'0 0.0
2018-Apr-17 11:29N 51°06' E 003°45'0 0.0
2018-Apr-17 10:59N 51°06' E 003°45'0 0.0
2018-Apr-17 10:29N 51°06' E 003°45'0 0.0
2018-Apr-17 09:58N 51°06' E 003°45'0 0.0
2018-Apr-17 09:30N 51°06' E 003°45'0 0.0
2018-Apr-17 09:00N 51°06' E 003°45'0 0.0
2018-Apr-17 08:30N 51°06' E 003°45'0 0.0
2018-Apr-17 08:00N 51°06' E 003°45'0 0.0
2018-Apr-17 07:30N 51°06' E 003°45'0 0.0
2018-Apr-17 07:00N 51°06' E 003°45'0 0.0
2018-Apr-17 06:30N 51°06' E 003°45'0 0.0
2018-Apr-17 05:59N 51°06' E 003°45'0 0.0
2018-Apr-17 05:30N 51°06' E 003°45'0 0.0
2018-Apr-17 05:00N 51°06' E 003°45'0 0.0
2018-Apr-17 04:30N 51°06' E 003°45'0 0.0
2018-Apr-17 04:00N 51°06' E 003°45'0 0.0
2018-Apr-17 03:30N 51°06' E 003°45'0 0.0
2018-Apr-17 03:00N 51°06' E 003°45'0 0.0
2018-Apr-17 02:30N 51°06' E 003°45'0 0.0
2018-Apr-17 02:00N 51°06' E 003°45'0 0.0
2018-Apr-17 01:30N 51°06' E 003°45'0 0.0
2018-Apr-17 01:00N 51°06' E 003°45'0 0.0
2018-Apr-17 00:30N 51°06' E 003°45'0 0.0
2018-Apr-17 00:00N 51°06' E 003°45'0 0.0
2018-Apr-16 23:30N 51°06' E 003°45'0 0.0
2018-Apr-16 23:00N 51°06' E 003°45'0 0.0
2018-Apr-16 22:30N 51°06' E 003°45'0 0.0
2018-Apr-16 22:00N 51°06' E 003°45'0 0.0
2018-Apr-16 21:30N 51°06' E 003°45'0 0.0
2018-Apr-16 21:00N 51°06' E 003°45'0 0.0
2018-Apr-16 20:30N 51°06' E 003°45'0 0.0
2018-Apr-16 20:00N 51°06' E 003°45'0 0.0
2018-Apr-16 19:30N 51°06' E 003°45'0 0.0
2018-Apr-16 19:00N 51°06' E 003°45'0 0.0
2018-Apr-16 18:30N 51°06' E 003°45'0 0.0
2018-Apr-16 18:00N 51°06' E 003°45'0 0.0
2018-Apr-16 17:30N 51°06' E 003°45'0 0.0
2018-Apr-16 17:00N 51°06' E 003°45'0 0.0
2018-Apr-16 16:30N 51°06' E 003°45'0 0.0
2018-Apr-16 16:00N 51°06' E 003°45'0 0.0
2018-Apr-16 15:30N 51°06' E 003°45'0 0.0
2018-Apr-16 15:00N 51°06' E 003°45'0 0.0
2018-Apr-16 14:30N 51°06' E 003°45'0 0.2
2018-Apr-16 14:00N 51°06' E 003°45'1 1.1
2018-Apr-16 13:28N 51°06' E 003°45'0 0.0
2018-Apr-16 12:58N 51°06' E 003°45'0 0.0
2018-Apr-16 12:28N 51°06' E 003°45'0 0.0
2018-Apr-16 11:55N 51°06' E 003°45'0 0.0
2018-Apr-16 11:28N 51°06' E 003°45'0 0.0
2018-Apr-16 10:58N 51°06' E 003°45'0 0.0
2018-Apr-16 10:28N 51°06' E 003°45'0 0.0
2018-Apr-16 09:58N 51°06' E 003°45'0 0.0
2018-Apr-16 09:25N 51°06' E 003°45'0 0.0
2018-Apr-16 08:55N 51°06' E 003°45'0 0.0
2018-Apr-16 08:28N 51°06' E 003°45'0 0.0
2018-Apr-16 07:55N 51°06' E 003°45'0 0.0
2018-Apr-16 07:28N 51°06' E 003°45'0 0.0
2018-Apr-16 06:58N 51°06' E 003°45'0 0.0
2018-Apr-16 06:28N 51°06' E 003°45'0 0.0
2018-Apr-16 05:52N 51°06' E 003°45'0 0.0
2018-Apr-16 05:28N 51°06' E 003°45'0 0.0
2018-Apr-16 04:58N 51°06' E 003°45'0 0.0
2018-Apr-16 04:28N 51°06' E 003°45'0 0.0
2018-Apr-16 03:55N 51°06' E 003°45'0 0.0
2018-Apr-16 03:28N 51°06' E 003°45'0 0.0
2018-Apr-16 02:58N 51°06' E 003°45'0 0.0
2018-Apr-16 02:25N 51°06' E 003°45'0 0.0
2018-Apr-16 01:52N 51°06' E 003°45'0 0.0
2018-Apr-16 01:28N 51°06' E 003°45'0 0.0
2018-Apr-16 00:58N 51°06' E 003°45'0 0.0
2018-Apr-16 00:28N 51°06' E 003°45'0 0.0
2018-Apr-15 23:58N 51°06' E 003°45'0 0.0
2018-Apr-15 23:22N 51°06' E 003°45'0 0.0
2018-Apr-15 22:58N 51°06' E 003°45'0 0.0
2018-Apr-15 22:28N 51°06' E 003°45'0 0.0
2018-Apr-15 21:58N 51°06' E 003°45'0 0.0
2018-Apr-15 21:28N 51°06' E 003°45'0 0.0
2018-Apr-15 20:58N 51°06' E 003°45'0 0.0
2018-Apr-15 20:28N 51°06' E 003°45'0 0.0
2018-Apr-15 19:58N 51°06' E 003°45'0 0.0
2018-Apr-15 19:28N 51°06' E 003°45'0 0.0
2018-Apr-15 18:58N 51°06' E 003°45'0 0.0
2018-Apr-15 18:28N 51°06' E 003°45'0 0.0
2018-Apr-15 17:58N 51°06' E 003°45'0 0.0
2018-Apr-15 17:28N 51°06' E 003°45'0 0.0
2018-Apr-15 16:52N 51°06' E 003°45'0 0.0
2018-Apr-15 16:28N 51°06' E 003°45'0 0.0
2018-Apr-15 15:58N 51°06' E 003°45'0 0.0
2018-Apr-15 15:22N 51°06' E 003°45'0 0.0
2018-Apr-15 14:59N 51°06' E 003°45'0 0.0
2018-Apr-15 14:22N 51°06' E 003°45'0 0.0
2018-Apr-15 13:55N 51°06' E 003°45'0 0.0
2018-Apr-15 13:28N 51°06' E 003°45'0 0.0
2018-Apr-15 12:58N 51°06' E 003°45'0 0.0
2018-Apr-15 12:28N 51°06' E 003°45'0 0.0
2018-Apr-15 11:58N 51°06' E 003°45'0 0.0
2018-Apr-15 11:28N 51°06' E 003°45'0 0.0
2018-Apr-15 10:58N 51°06' E 003°45'0 0.0
2018-Apr-15 10:28N 51°06' E 003°45'0 0.0
2018-Apr-15 09:58N 51°06' E 003°45'0 0.0
2018-Apr-15 09:28N 51°06' E 003°45'0 0.0
2018-Apr-15 08:58N 51°06' E 003°45'0 0.0
2018-Apr-15 08:28N 51°06' E 003°45'0 0.0
2018-Apr-15 07:58N 51°06' E 003°45'0 0.0
2018-Apr-15 07:28N 51°06' E 003°45'0 0.0
2018-Apr-15 06:58N 51°06' E 003°45'0 0.0
2018-Apr-15 06:28N 51°06' E 003°45'0 0.0
2018-Apr-15 05:58N 51°06' E 003°45'0 0.0
2018-Apr-15 05:28N 51°06' E 003°45'0 0.0
2018-Apr-15 04:58N 51°06' E 003°45'0 0.0
2018-Apr-15 04:28N 51°06' E 003°45'0 0.0
2018-Apr-15 03:58N 51°06' E 003°45'0 0.0
2018-Apr-15 03:28N 51°06' E 003°45'0 0.0
2018-Apr-15 02:58N 51°06' E 003°45'0 0.0
2018-Apr-15 02:28N 51°06' E 003°45'0 0.0
2018-Apr-15 01:58N 51°06' E 003°45'0 0.0
2018-Apr-15 01:28N 51°06' E 003°45'0 0.0
2018-Apr-15 00:58N 51°06' E 003°45'0 0.0
2018-Apr-15 00:28N 51°06' E 003°45'0 0.0
2018-Apr-14 23:58N 51°06' E 003°45'0 0.0
2018-Apr-14 23:28N 51°06' E 003°45'0 0.0
2018-Apr-14 22:58N 51°06' E 003°45'0 0.0
2018-Apr-14 22:28N 51°06' E 003°45'0 0.0
2018-Apr-14 21:58N 51°06' E 003°45'0 0.0
2018-Apr-14 21:28N 51°06' E 003°45'0 0.0
2018-Apr-14 20:58N 51°06' E 003°45'0 0.0
2018-Apr-14 20:28N 51°06' E 003°45'0 0.0
2018-Apr-14 19:58N 51°06' E 003°45'0 0.0
2018-Apr-14 19:22N 51°06' E 003°45'0 0.0
2018-Apr-14 18:58N 51°06' E 003°45'0 0.0
2018-Apr-14 18:28N 51°06' E 003°45'0 0.0
2018-Apr-14 17:52N 51°06' E 003°45'0 0.0
2018-Apr-14 17:28N 51°06' E 003°45'0 0.0
2018-Apr-14 16:58N 51°06' E 003°45'0 0.0
2018-Apr-14 16:28N 51°06' E 003°45'0 0.0
2018-Apr-14 15:58N 51°06' E 003°45'0 0.0
2018-Apr-14 15:28N 51°06' E 003°45'0 0.0
2018-Apr-14 14:58N 51°06' E 003°45'0 0.0
2018-Apr-14 14:28N 51°06' E 003°45'0 0.0
2018-Apr-14 13:55N 51°06' E 003°45'0 0.0
2018-Apr-14 13:28N 51°06' E 003°45'0 0.0
2018-Apr-14 12:58N 51°06' E 003°45'0 0.0
2018-Apr-14 12:28N 51°06' E 003°45'0 0.0
2018-Apr-14 11:58N 51°06' E 003°45'0 0.0
2018-Apr-14 11:28N 51°06' E 003°45'0 0.0
2018-Apr-14 10:55N 51°06' E 003°45'0 0.0
2018-Apr-14 10:28N 51°06' E 003°45'0 0.0
2018-Apr-14 09:55N 51°06' E 003°45'0 0.0
2018-Apr-14 09:28N 51°06' E 003°45'0 0.0
2018-Apr-14 08:46N 51°06' E 003°45'0 0.0
2018-Apr-14 08:28N 51°06' E 003°45'0 0.0
2018-Apr-14 07:58N 51°06' E 003°45'0 0.0
2018-Apr-14 07:28N 51°06' E 003°45'0 0.0
2018-Apr-14 06:58N 51°06' E 003°45'0 0.0
2018-Apr-14 06:28N 51°06' E 003°45'0 0.0
2018-Apr-14 05:52N 51°06' E 003°45'0 0.0
2018-Apr-14 05:28N 51°06' E 003°45'0 0.0
2018-Apr-14 04:55N 51°06' E 003°45'0 0.0
2018-Apr-14 04:28N 51°06' E 003°45'0 0.0
2018-Apr-14 03:58N 51°06' E 003°45'0 0.0
2018-Apr-14 03:28N 51°06' E 003°45'0 0.0
2018-Apr-14 02:55N 51°06' E 003°45'0 0.0
2018-Apr-14 02:22N 51°06' E 003°45'0 0.0
2018-Apr-14 01:58N 51°06' E 003°45'0 0.0
2018-Apr-14 01:22N 51°06' E 003°45'0 0.0
2018-Apr-14 00:58N 51°06' E 003°45'0 0.0
2018-Apr-14 00:22N 51°06' E 003°45'0 0.0
2018-Apr-13 23:58N 51°06' E 003°45'0 0.0
2018-Apr-13 23:25N 51°06' E 003°45'0 0.0
2018-Apr-13 22:58N 51°06' E 003°45'0 0.0
2018-Apr-13 22:25N 51°06' E 003°45'0 0.0
2018-Apr-13 21:55N 51°06' E 003°45'0 0.0
2018-Apr-13 21:28N 51°06' E 003°45'0 0.0
2018-Apr-13 20:58N 51°06' E 003°45'0 0.0
2018-Apr-13 20:28N 51°06' E 003°45'0 0.0
2018-Apr-13 19:58N 51°06' E 003°45'0 0.0
2018-Apr-13 19:28N 51°06' E 003°45'0 0.0
2018-Apr-13 18:58N 51°06' E 003°45'0 0.0
2018-Apr-13 18:28N 51°06' E 003°45'0 0.0
2018-Apr-13 17:58N 51°06' E 003°45'0 0.0
2018-Apr-13 17:28N 51°06' E 003°45'0 0.0
2018-Apr-13 16:52N 51°06' E 003°45'0 0.0
2018-Apr-13 16:28N 51°06' E 003°45'0 0.0
2018-Apr-13 15:58N 51°06' E 003°45'0 0.0
2018-Apr-13 15:28N 51°06' E 003°45'0 0.0
2018-Apr-13 14:58N 51°06' E 003°45'0 0.0
2018-Apr-13 14:28N 51°06' E 003°45'0 0.0
2018-Apr-13 13:58N 51°06' E 003°45'0 0.0
2018-Apr-13 13:28N 51°06' E 003°45'0 0.0
2018-Apr-13 12:58N 51°06' E 003°45'0 0.0
2018-Apr-13 12:28N 51°06' E 003°45'0 0.0
2018-Apr-13 11:58N 51°06' E 003°45'0 0.0
2018-Apr-13 11:28N 51°06' E 003°45'0 0.0
2018-Apr-13 10:58N 51°06' E 003°45'0 0.0
2018-Apr-13 10:28N 51°06' E 003°45'0 0.0
2018-Apr-13 09:58N 51°06' E 003°45'0 0.0
2018-Apr-13 09:28N 51°06' E 003°45'0 0.0
2018-Apr-13 08:58N 51°06' E 003°45'0 0.0
2018-Apr-13 08:28N 51°06' E 003°45'0 0.0
2018-Apr-13 07:58N 51°06' E 003°45'0 0.0
2018-Apr-13 07:28N 51°06' E 003°45'0 0.0
2018-Apr-13 06:58N 51°06' E 003°45'0 0.0
2018-Apr-13 06:28N 51°06' E 003°45'0 0.0
2018-Apr-13 05:58N 51°06' E 003°45'0 0.0
2018-Apr-13 05:28N 51°06' E 003°45'0 0.0
2018-Apr-13 04:58N 51°06' E 003°45'0 0.0
2018-Apr-13 04:28N 51°06' E 003°45'0 0.0
2018-Apr-13 03:58N 51°06' E 003°45'0 0.0
2018-Apr-13 03:28N 51°06' E 003°45'0 0.0
2018-Apr-13 02:58N 51°06' E 003°45'0 0.0
2018-Apr-13 02:28N 51°06' E 003°45'0 0.0
2018-Apr-13 01:58N 51°06' E 003°45'0 0.0
2018-Apr-13 01:28N 51°06' E 003°45'0 0.0
2018-Apr-13 00:58N 51°06' E 003°45'0 0.0
2018-Apr-13 00:28N 51°06' E 003°45'0 0.0
2018-Apr-12 23:58N 51°06' E 003°45'0 0.0
2018-Apr-12 23:28N 51°06' E 003°45'0 0.0
2018-Apr-12 22:58N 51°06' E 003°45'0 0.0
2018-Apr-12 22:28N 51°06' E 003°45'0 0.0
2018-Apr-12 21:58N 51°06' E 003°45'0 0.0
2018-Apr-12 21:28N 51°06' E 003°45'0 0.0
2018-Apr-12 20:58N 51°06' E 003°45'0 0.0
2018-Apr-12 20:28N 51°06' E 003°45'0 0.0
2018-Apr-12 19:58N 51°06' E 003°45'0 0.0
2018-Apr-12 19:28N 51°06' E 003°45'0 0.0
2018-Apr-12 18:58N 51°06' E 003°45'0 0.0
2018-Apr-12 18:28N 51°06' E 003°45'0 0.0
2018-Apr-12 17:58N 51°06' E 003°45'0 0.0
2018-Apr-12 17:25N 51°06' E 003°45'0 0.0
2018-Apr-12 16:58N 51°06' E 003°45'0 0.0
2018-Apr-12 16:28N 51°06' E 003°45'0 0.0
2018-Apr-12 15:58N 51°06' E 003°45'0 0.0
2018-Apr-12 15:28N 51°06' E 003°45'0 0.0
2018-Apr-12 14:58N 51°06' E 003°45'0 0.0
2018-Apr-12 14:28N 51°06' E 003°45'0 0.0
2018-Apr-12 13:58N 51°06' E 003°45'0 0.0
2018-Apr-12 13:28N 51°06' E 003°45'0 0.0
2018-Apr-12 12:58N 51°06' E 003°45'0 0.0
2018-Apr-12 12:28N 51°06' E 003°45'0 0.0
2018-Apr-12 11:58N 51°06' E 003°45'  
Track history (hours):
 
Tides and Currents Weather Stations Pressure Air Temp Water Temp Dewpoint Dewpoint Depression Visibility Wind Speed Wind Dir Waves Ship Positions

Celina

Last reported at 2018-Apr-22 11:49 UTC. Time now 2018-Apr-23 14:56 UTC.
Position N 38°20' W 010°00'.

Length 105 m; draft 7.2 m.

Type: Cargo ship. MMSI: 304099000.

Date/timePositionNaut miles runAvg speedWind from/ knotsBaromVisibWave heightAir tempDewpointWater temp
2018-Apr-22 11:49N 38°20' W 010°00'3 9.5
2018-Apr-22 11:29N 38°23' W 010°01'5 9.5
2018-Apr-22 11:00N 38°28' W 010°02'5 9.6
2018-Apr-22 10:30N 38°33' W 010°04'5 9.5
2018-Apr-22 09:57N 38°38' W 010°06'6 9.8
2018-Apr-22 09:20N 38°44' W 010°07'310.2
2018-Apr-22 09:00N 38°47' W 010°07'610.2
2018-Apr-22 08:26N 38°53' W 010°07'410.1
2018-Apr-22 08:00N 38°57' W 010°08'5 9.8
2018-Apr-22 07:30N 39°02' W 010°09'5 9.9
2018-Apr-22 07:00N 39°07' W 010°10'5 9.7
2018-Apr-22 06:30N 39°12' W 010°11'510.2
2018-Apr-22 06:00N 39°17' W 010°11'  
2018-Apr-19 11:17N 49°19' W 004°38'23 9.1
2018-Apr-19 08:48N 49°30' W 004°08'10 7.3
2018-Apr-19 07:23N 49°35' W 003°54'3 7.1
2018-Apr-19 06:55N 49°37' W 003°50'3 7.1
2018-Apr-19 06:28N 49°39' W 003°45'7 7.4
2018-Apr-19 05:35N 49°42' W 003°37'1 7.7
2018-Apr-19 05:30N 49°42' W 003°36'5 8.2
2018-Apr-19 04:53N 49°45' W 003°29'3 8.9
2018-Apr-19 04:30N 49°47' W 003°24'5 9.7
2018-Apr-19 04:00N 49°49' W 003°18'510.5
2018-Apr-19 03:30N 49°52' W 003°11'611.0
2018-Apr-19 03:00N 49°55' W 003°04'611.2
2018-Apr-19 02:30N 49°57' W 002°56'611.0
2018-Apr-19 02:00N 49°59' W 002°48'510.5
2018-Apr-19 01:30N 50°01' W 002°40'5 9.8
2018-Apr-19 01:00N 50°02' W 002°33'4 9.0
2018-Apr-19 00:30N 50°03' W 002°26'14 6.9
2018-Apr-18 22:30N 50°07' W 002°05'3 5.1
2018-Apr-18 22:00N 50°08' W 002°02'2 4.7
2018-Apr-18 21:30N 50°09' W 001°58'2 4.7
2018-Apr-18 20:59N 50°09' W 001°55'2 4.9
2018-Apr-18 20:30N 50°10' W 001°51'3 5.6
2018-Apr-18 20:00N 50°11' W 001°47'3 6.5
2018-Apr-18 19:30N 50°12' W 001°42'4 7.7
2018-Apr-18 19:01N 50°13' W 001°36'4 8.8
2018-Apr-18 18:30N 50°14' W 001°30'510.1
2018-Apr-18 18:00N 50°16' W 001°22'611.2
2018-Apr-18 17:28N 50°18' W 001°13'612.1
2018-Apr-18 17:00N 50°19' W 001°05'712.8
2018-Apr-18 16:28N 50°21' W 000°55'612.7
2018-Apr-18 16:00N 50°23' W 000°46'612.5
2018-Apr-18 15:30N 50°25' W 000°36'612.0
2018-Apr-18 15:00N 50°27' W 000°27'611.3
2018-Apr-18 14:30N 50°28' W 000°19'510.7
2018-Apr-18 14:00N 50°30' W 000°11'510.1
2018-Apr-18 13:30N 50°31' W 000°03'4 8.5
2018-Apr-18 13:00N 50°33' E 000°03'4 8.8
2018-Apr-18 12:30N 50°34' E 000°10'4 8.6
2018-Apr-18 12:00N 50°35' E 000°16'4 8.0
2018-Apr-18 11:30N 50°36' E 000°22'4 7.6
2018-Apr-18 11:00N 50°37' E 000°28'4 7.5
2018-Apr-18 10:30N 50°39' E 000°33'4 7.7
2018-Apr-18 10:00N 50°41' E 000°39'4 8.4
2018-Apr-18 09:30N 50°43' E 000°44'5 9.2
2018-Apr-18 09:00N 50°46' E 000°50'510.1
2018-Apr-18 08:29N 50°49' E 000°57'911.3
2018-Apr-18 07:42N 50°54' E 001°08'311.6
2018-Apr-18 07:27N 50°56' E 001°12'611.7
2018-Apr-18 06:57N 50°60' E 001°19'511.6
2018-Apr-18 06:30N 51°03' E 001°25'510.8
2018-Apr-18 06:00N 51°07' E 001°32'5 9.9
2018-Apr-18 05:30N 51°10' E 001°37'5 9.3
2018-Apr-18 05:00N 51°13' E 001°43'4 8.9
2018-Apr-18 04:30N 51°16' E 001°47'4 8.1
2018-Apr-18 04:00N 51°20' E 001°51'4 7.9
2018-Apr-18 03:30N 51°22' E 001°56'4 7.5
2018-Apr-18 03:00N 51°25' E 002°00'5 9.3
2018-Apr-18 02:30N 51°23' E 002°07'5 9.2
2018-Apr-18 02:00N 51°21' E 002°14'4 8.0
2018-Apr-18 01:30N 51°21' E 002°21'4 8.1
2018-Apr-18 01:00N 51°22' E 002°27'5 8.5
2018-Apr-18 00:27N 51°23' E 002°34'4 9.4
2018-Apr-18 00:00N 51°22' E 002°41'5 8.9
2018-Apr-17 23:29N 51°22' E 002°48'510.6
2018-Apr-17 22:59N 51°23' E 002°57'510.4
2018-Apr-17 22:30N 51°24' E 003°04'510.2
2018-Apr-17 22:00N 51°25' E 003°13'510.5
2018-Apr-17 21:30N 51°25' E 003°21'510.9
2018-Apr-17 21:00N 51°25' E 003°30'510.7
2018-Apr-17 20:30N 51°26' E 003°38'511.0
2018-Apr-17 20:00N 51°22' E 003°44'4 7.9
2018-Apr-17 19:30N 51°20' E 003°49'0 0.2
2018-Apr-17 19:00N 51°20' E 003°49'0 1.0
2018-Apr-17 18:31N 51°19' E 003°49'3 6.0
2018-Apr-17 18:01N 51°16' E 003°50'3 6.2
2018-Apr-17 17:30N 51°13' E 003°48'3 5.7
2018-Apr-17 17:00N 51°11' E 003°48'3 6.8
2018-Apr-17 16:30N 51°08' E 003°46'1 2.7
2018-Apr-17 15:59N 51°06' E 003°45'0 0.0
2018-Apr-17 15:29N 51°06' E 003°45'0 0.0
2018-Apr-17 14:58N 51°06' E 003°45'0 0.0
2018-Apr-17 14:22N 51°06' E 003°45'0 0.0
2018-Apr-17 13:58N 51°06' E 003°45'0 0.0
2018-Apr-17 13:25N 51°06' E 003°45'0 0.0
2018-Apr-17 12:59N 51°06' E 003°45'0 0.0
2018-Apr-17 12:28N 51°06' E 003°45'0 0.0
2018-Apr-17 11:58N 51°06' E 003°45'0 0.0
2018-Apr-17 11:29N 51°06' E 003°45'0 0.0
2018-Apr-17 10:59N 51°06' E 003°45'0 0.0
2018-Apr-17 10:29N 51°06' E 003°45'0 0.0
2018-Apr-17 09:58N 51°06' E 003°45'0 0.0
2018-Apr-17 09:30N 51°06' E 003°45'0 0.0
2018-Apr-17 09:00N 51°06' E 003°45'0 0.0
2018-Apr-17 08:30N 51°06' E 003°45'0 0.0
2018-Apr-17 08:00N 51°06' E 003°45'0 0.0
2018-Apr-17 07:30N 51°06' E 003°45'0 0.0
2018-Apr-17 07:00N 51°06' E 003°45'0 0.0
2018-Apr-17 06:30N 51°06' E 003°45'0 0.0
2018-Apr-17 05:59N 51°06' E 003°45'0 0.0
2018-Apr-17 05:30N 51°06' E 003°45'0 0.0
2018-Apr-17 05:00N 51°06' E 003°45'0 0.0
2018-Apr-17 04:30N 51°06' E 003°45'0 0.0
2018-Apr-17 04:00N 51°06' E 003°45'0 0.0
2018-Apr-17 03:30N 51°06' E 003°45'0 0.0
2018-Apr-17 03:00N 51°06' E 003°45'0 0.0
2018-Apr-17 02:30N 51°06' E 003°45'0 0.0
2018-Apr-17 02:00N 51°06' E 003°45'0 0.0
2018-Apr-17 01:30N 51°06' E 003°45'0 0.0
2018-Apr-17 01:00N 51°06' E 003°45'0 0.0
2018-Apr-17 00:30N 51°06' E 003°45'0 0.0
2018-Apr-17 00:00N 51°06' E 003°45'0 0.0
2018-Apr-16 23:30N 51°06' E 003°45'0 0.0
2018-Apr-16 23:00N 51°06' E 003°45'0 0.0
2018-Apr-16 22:30N 51°06' E 003°45'0 0.0
2018-Apr-16 22:00N 51°06' E 003°45'0 0.0
2018-Apr-16 21:30N 51°06' E 003°45'0 0.0
2018-Apr-16 21:00N 51°06' E 003°45'0 0.0
2018-Apr-16 20:30N 51°06' E 003°45'0 0.0
2018-Apr-16 20:00N 51°06' E 003°45'0 0.0
2018-Apr-16 19:30N 51°06' E 003°45'0 0.0
2018-Apr-16 19:00N 51°06' E 003°45'0 0.0
2018-Apr-16 18:30N 51°06' E 003°45'0 0.0
2018-Apr-16 18:00N 51°06' E 003°45'0 0.0
2018-Apr-16 17:30N 51°06' E 003°45'0 0.0
2018-Apr-16 17:00N 51°06' E 003°45'0 0.0
2018-Apr-16 16:30N 51°06' E 003°45'0 0.0
2018-Apr-16 16:00N 51°06' E 003°45'0 0.0
2018-Apr-16 15:30N 51°06' E 003°45'0 0.0
2018-Apr-16 15:00N 51°06' E 003°45'0 0.0
2018-Apr-16 14:30N 51°06' E 003°45'0 0.2
2018-Apr-16 14:00N 51°06' E 003°45'1 1.1
2018-Apr-16 13:28N 51°06' E 003°45'0 0.0
2018-Apr-16 12:58N 51°06' E 003°45'0 0.0
2018-Apr-16 12:28N 51°06' E 003°45'0 0.0
2018-Apr-16 11:55N 51°06' E 003°45'0 0.0
2018-Apr-16 11:28N 51°06' E 003°45'0 0.0
2018-Apr-16 10:58N 51°06' E 003°45'0 0.0
2018-Apr-16 10:28N 51°06' E 003°45'0 0.0
2018-Apr-16 09:58N 51°06' E 003°45'0 0.0
2018-Apr-16 09:25N 51°06' E 003°45'0 0.0
2018-Apr-16 08:55N 51°06' E 003°45'0 0.0
2018-Apr-16 08:28N 51°06' E 003°45'0 0.0
2018-Apr-16 07:55N 51°06' E 003°45'0 0.0
2018-Apr-16 07:28N 51°06' E 003°45'0 0.0
2018-Apr-16 06:58N 51°06' E 003°45'0 0.0
2018-Apr-16 06:28N 51°06' E 003°45'0 0.0
2018-Apr-16 05:52N 51°06' E 003°45'0 0.0
2018-Apr-16 05:28N 51°06' E 003°45'0 0.0
2018-Apr-16 04:58N 51°06' E 003°45'0 0.0
2018-Apr-16 04:28N 51°06' E 003°45'0 0.0
2018-Apr-16 03:55N 51°06' E 003°45'0 0.0
2018-Apr-16 03:28N 51°06' E 003°45'0 0.0
2018-Apr-16 02:58N 51°06' E 003°45'0 0.0
2018-Apr-16 02:25N 51°06' E 003°45'0 0.0
2018-Apr-16 01:52N 51°06' E 003°45'0 0.0
2018-Apr-16 01:28N 51°06' E 003°45'0 0.0
2018-Apr-16 00:58N 51°06' E 003°45'0 0.0
2018-Apr-16 00:28N 51°06' E 003°45'0 0.0
2018-Apr-15 23:58N 51°06' E 003°45'0 0.0
2018-Apr-15 23:22N 51°06' E 003°45'0 0.0
2018-Apr-15 22:58N 51°06' E 003°45'0 0.0
2018-Apr-15 22:28N 51°06' E 003°45'0 0.0
2018-Apr-15 21:58N 51°06' E 003°45'0 0.0
2018-Apr-15 21:28N 51°06' E 003°45'0 0.0
2018-Apr-15 20:58N 51°06' E 003°45'0 0.0
2018-Apr-15 20:28N 51°06' E 003°45'0 0.0
2018-Apr-15 19:58N 51°06' E 003°45'0 0.0
2018-Apr-15 19:28N 51°06' E 003°45'0 0.0
2018-Apr-15 18:58N 51°06' E 003°45'0 0.0
2018-Apr-15 18:28N 51°06' E 003°45'0 0.0
2018-Apr-15 17:58N 51°06' E 003°45'0 0.0
2018-Apr-15 17:28N 51°06' E 003°45'0 0.0
2018-Apr-15 16:52N 51°06' E 003°45'0 0.0
2018-Apr-15 16:28N 51°06' E 003°45'0 0.0
2018-Apr-15 15:58N 51°06' E 003°45'0 0.0
2018-Apr-15 15:22N 51°06' E 003°45'0 0.0
2018-Apr-15 14:59N 51°06' E 003°45'0 0.0
2018-Apr-15 14:22N 51°06' E 003°45'0 0.0
2018-Apr-15 13:55N 51°06' E 003°45'0 0.0
2018-Apr-15 13:28N 51°06' E 003°45'0 0.0
2018-Apr-15 12:58N 51°06' E 003°45'0 0.0
2018-Apr-15 12:28N 51°06' E 003°45'0 0.0
2018-Apr-15 11:58N 51°06' E 003°45'0 0.0
2018-Apr-15 11:28N 51°06' E 003°45'0 0.0
2018-Apr-15 10:58N 51°06' E 003°45'0 0.0
2018-Apr-15 10:28N 51°06' E 003°45'0 0.0
2018-Apr-15 09:58N 51°06' E 003°45'0 0.0
2018-Apr-15 09:28N 51°06' E 003°45'0 0.0
2018-Apr-15 08:58N 51°06' E 003°45'0 0.0
2018-Apr-15 08:28N 51°06' E 003°45'0 0.0
2018-Apr-15 07:58N 51°06' E 003°45'0 0.0
2018-Apr-15 07:28N 51°06' E 003°45'0 0.0
2018-Apr-15 06:58N 51°06' E 003°45'0 0.0
2018-Apr-15 06:28N 51°06' E 003°45'0 0.0
2018-Apr-15 05:58N 51°06' E 003°45'0 0.0
2018-Apr-15 05:28N 51°06' E 003°45'0 0.0
2018-Apr-15 04:58N 51°06' E 003°45'0 0.0
2018-Apr-15 04:28N 51°06' E 003°45'0 0.0
2018-Apr-15 03:58N 51°06' E 003°45'0 0.0
2018-Apr-15 03:28N 51°06' E 003°45'0 0.0
2018-Apr-15 02:58N 51°06' E 003°45'0 0.0
2018-Apr-15 02:28N 51°06' E 003°45'0 0.0
2018-Apr-15 01:58N 51°06' E 003°45'0 0.0
2018-Apr-15 01:28N 51°06' E 003°45'0 0.0
2018-Apr-15 00:58N 51°06' E 003°45'0 0.0
2018-Apr-15 00:28N 51°06' E 003°45'0 0.0
2018-Apr-14 23:58N 51°06' E 003°45'0 0.0
2018-Apr-14 23:28N 51°06' E 003°45'0 0.0
2018-Apr-14 22:58N 51°06' E 003°45'0 0.0
2018-Apr-14 22:28N 51°06' E 003°45'0 0.0
2018-Apr-14 21:58N 51°06' E 003°45'0 0.0
2018-Apr-14 21:28N 51°06' E 003°45'0 0.0
2018-Apr-14 20:58N 51°06' E 003°45'0 0.0
2018-Apr-14 20:28N 51°06' E 003°45'0 0.0
2018-Apr-14 19:58N 51°06' E 003°45'0 0.0
2018-Apr-14 19:22N 51°06' E 003°45'0 0.0
2018-Apr-14 18:58N 51°06' E 003°45'0 0.0
2018-Apr-14 18:28N 51°06' E 003°45'0 0.0
2018-Apr-14 17:52N 51°06' E 003°45'0 0.0
2018-Apr-14 17:28N 51°06' E 003°45'0 0.0
2018-Apr-14 16:58N 51°06' E 003°45'0 0.0
2018-Apr-14 16:28N 51°06' E 003°45'0 0.0
2018-Apr-14 15:58N 51°06' E 003°45'0 0.0
2018-Apr-14 15:28N 51°06' E 003°45'0 0.0
2018-Apr-14 14:58N 51°06' E 003°45'0 0.0
2018-Apr-14 14:28N 51°06' E 003°45'0 0.0
2018-Apr-14 13:55N 51°06' E 003°45'0 0.0
2018-Apr-14 13:28N 51°06' E 003°45'0 0.0
2018-Apr-14 12:58N 51°06' E 003°45'0 0.0
2018-Apr-14 12:28N 51°06' E 003°45'0 0.0
2018-Apr-14 11:58N 51°06' E 003°45'0 0.0
2018-Apr-14 11:28N 51°06' E 003°45'0 0.0
2018-Apr-14 10:55N 51°06' E 003°45'0 0.0
2018-Apr-14 10:28N 51°06' E 003°45'0 0.0
2018-Apr-14 09:55N 51°06' E 003°45'0 0.0
2018-Apr-14 09:28N 51°06' E 003°45'0 0.0
2018-Apr-14 08:46N 51°06' E 003°45'0 0.0
2018-Apr-14 08:28N 51°06' E 003°45'0 0.0
2018-Apr-14 07:58N 51°06' E 003°45'0 0.0
2018-Apr-14 07:28N 51°06' E 003°45'0 0.0
2018-Apr-14 06:58N 51°06' E 003°45'0 0.0
2018-Apr-14 06:28N 51°06' E 003°45'0 0.0
2018-Apr-14 05:52N 51°06' E 003°45'0 0.0
2018-Apr-14 05:28N 51°06' E 003°45'0 0.0
2018-Apr-14 04:55N 51°06' E 003°45'0 0.0
2018-Apr-14 04:28N 51°06' E 003°45'0 0.0
2018-Apr-14 03:58N 51°06' E 003°45'0 0.0
2018-Apr-14 03:28N 51°06' E 003°45'0 0.0
2018-Apr-14 02:55N 51°06' E 003°45'0 0.0
2018-Apr-14 02:22N 51°06' E 003°45'0 0.0
2018-Apr-14 01:58N 51°06' E 003°45'0 0.0
2018-Apr-14 01:22N 51°06' E 003°45'0 0.0
2018-Apr-14 00:58N 51°06' E 003°45'0 0.0
2018-Apr-14 00:22N 51°06' E 003°45'0 0.0
2018-Apr-13 23:58N 51°06' E 003°45'0 0.0
2018-Apr-13 23:25N 51°06' E 003°45'0 0.0
2018-Apr-13 22:58N 51°06' E 003°45'0 0.0
2018-Apr-13 22:25N 51°06' E 003°45'0 0.0
2018-Apr-13 21:55N 51°06' E 003°45'0 0.0
2018-Apr-13 21:28N 51°06' E 003°45'0 0.0
2018-Apr-13 20:58N 51°06' E 003°45'0 0.0
2018-Apr-13 20:28N 51°06' E 003°45'0 0.0
2018-Apr-13 19:58N 51°06' E 003°45'0 0.0
2018-Apr-13 19:28N 51°06' E 003°45'0 0.0
2018-Apr-13 18:58N 51°06' E 003°45'0 0.0
2018-Apr-13 18:28N 51°06' E 003°45'0 0.0
2018-Apr-13 17:58N 51°06' E 003°45'0 0.0
2018-Apr-13 17:28N 51°06' E 003°45'0 0.0
2018-Apr-13 16:52N 51°06' E 003°45'0 0.0
2018-Apr-13 16:28N 51°06' E 003°45'0 0.0
2018-Apr-13 15:58N 51°06' E 003°45'0 0.0
2018-Apr-13 15:28N 51°06' E 003°45'0 0.0
2018-Apr-13 14:58N 51°06' E 003°45'0 0.0
2018-Apr-13 14:28N 51°06' E 003°45'0 0.0
2018-Apr-13 13:58N 51°06' E 003°45'0 0.0
2018-Apr-13 13:28N 51°06' E 003°45'0 0.0
2018-Apr-13 12:58N 51°06' E 003°45'0 0.0
2018-Apr-13 12:28N 51°06' E 003°45'0 0.0
2018-Apr-13 11:58N 51°06' E 003°45'0 0.0
2018-Apr-13 11:28N 51°06' E 003°45'0 0.0
2018-Apr-13 10:58N 51°06' E 003°45'0 0.0
2018-Apr-13 10:28N 51°06' E 003°45'0 0.0
2018-Apr-13 09:58N 51°06' E 003°45'0 0.0
2018-Apr-13 09:28N 51°06' E 003°45'0 0.0
2018-Apr-13 08:58N 51°06' E 003°45'0 0.0
2018-Apr-13 08:28N 51°06' E 003°45'0 0.0
2018-Apr-13 07:58N 51°06' E 003°45'0 0.0
2018-Apr-13 07:28N 51°06' E 003°45'0 0.0
2018-Apr-13 06:58N 51°06' E 003°45'0 0.0
2018-Apr-13 06:28N 51°06' E 003°45'0 0.0
2018-Apr-13 05:58N 51°06' E 003°45'0 0.0
2018-Apr-13 05:28N 51°06' E 003°45'0 0.0
2018-Apr-13 04:58N 51°06' E 003°45'0 0.0
2018-Apr-13 04:28N 51°06' E 003°45'0 0.0
2018-Apr-13 03:58N 51°06' E 003°45'0 0.0
2018-Apr-13 03:28N 51°06' E 003°45'0 0.0
2018-Apr-13 02:58N 51°06' E 003°45'0 0.0
2018-Apr-13 02:28N 51°06' E 003°45'0 0.0
2018-Apr-13 01:58N 51°06' E 003°45'0 0.0
2018-Apr-13 01:28N 51°06' E 003°45'0 0.0
2018-Apr-13 00:58N 51°06' E 003°45'0 0.0
2018-Apr-13 00:28N 51°06' E 003°45'0 0.0
2018-Apr-12 23:58N 51°06' E 003°45'0 0.0
2018-Apr-12 23:28N 51°06' E 003°45'0 0.0
2018-Apr-12 22:58N 51°06' E 003°45'0 0.0
2018-Apr-12 22:28N 51°06' E 003°45'0 0.0
2018-Apr-12 21:58N 51°06' E 003°45'0 0.0
2018-Apr-12 21:28N 51°06' E 003°45'0 0.0
2018-Apr-12 20:58N 51°06' E 003°45'0 0.0
2018-Apr-12 20:28N 51°06' E 003°45'0 0.0
2018-Apr-12 19:58N 51°06' E 003°45'0 0.0
2018-Apr-12 19:28N 51°06' E 003°45'0 0.0
2018-Apr-12 18:58N 51°06' E 003°45'0 0.0
2018-Apr-12 18:28N 51°06' E 003°45'0 0.0
2018-Apr-12 17:58N 51°06' E 003°45'0 0.0
2018-Apr-12 17:25N 51°06' E 003°45'0 0.0
2018-Apr-12 16:58N 51°06' E 003°45'0 0.0
2018-Apr-12 16:28N 51°06' E 003°45'0 0.0
2018-Apr-12 15:58N 51°06' E 003°45'0 0.0
2018-Apr-12 15:28N 51°06' E 003°45'0 0.0
2018-Apr-12 14:58N 51°06' E 003°45'0 0.0
2018-Apr-12 14:28N 51°06' E 003°45'0 0.0
2018-Apr-12 13:58N 51°06' E 003°45'0 0.0
2018-Apr-12 13:28N 51°06' E 003°45'0 0.0
2018-Apr-12 12:58N 51°06' E 003°45'0 0.0
2018-Apr-12 12:28N 51°06' E 003°45'0 0.0
2018-Apr-12 11:58N 51°06' E 003°45'  

Dump ship's entire track history